createdAt,value
2023-02-03T20:57:41.482Z,39.88
2023-02-03T21:00:41.034Z,39.72
2023-02-03T21:03:29.985Z,37.67
2023-02-03T21:05:57.013Z,37.47
2023-02-03T21:08:23.907Z,38.65
2023-02-03T21:10:51.350Z,39.58
2023-02-03T21:13:29.408Z,42.13
2023-02-03T21:17:50.218Z,37.03
2023-02-03T21:20:29.597Z,31.15
2023-02-03T21:22:58.127Z,28.65
2023-02-03T21:25:30.223Z,30.17
2023-02-03T21:30:28.636Z,28.02
2023-02-03T21:32:55.660Z,28.33
2023-02-03T21:35:30.159Z,28.45
2023-02-03T21:38:04.734Z,24.98
2023-02-03T21:40:33.505Z,26.58
2023-02-03T21:43:03.674Z,31.70
2023-02-03T21:45:35.546Z,30.10
2023-02-03T21:48:24.252Z,35.08
2023-02-03T21:50:51.576Z,20.88
2023-02-03T21:53:32.592Z,21.35
2023-02-03T21:56:14.517Z,22.23
2023-02-03T21:58:44.784Z,20.25
2023-02-03T22:01:16.509Z,21.05
2023-02-03T22:03:49.885Z,17.83
2023-02-03T22:06:19.157Z,17.42
2023-02-03T22:08:48.173Z,20.95
2023-02-03T22:11:16.070Z,18.60
2023-02-03T22:13:43.090Z,18.92
2023-02-03T22:16:11.013Z,15.85
2023-02-03T22:18:39.221Z,20.05
2023-02-03T22:21:06.130Z,23.98
2023-02-03T22:23:33.728Z,20.42
2023-02-03T22:26:01.003Z,19.65
2023-02-03T22:28:27.843Z,17.30
2023-02-03T22:30:55.030Z,15.75
2023-02-03T22:33:22.026Z,14.85
2023-02-03T22:35:49.078Z,13.90
2023-02-03T22:38:16.032Z,14.13
2023-02-03T22:40:42.989Z,16.48
2023-02-03T22:43:09.954Z,11.38
2023-02-03T22:45:36.953Z,12.88
2023-02-03T22:48:04.666Z,13.88
2023-02-03T22:50:35.993Z,12.98
2023-02-03T22:53:07.154Z,12.43
2023-02-03T22:55:34.032Z,11.82
2023-02-03T22:58:00.940Z,14.05
2023-02-03T23:00:28.651Z,12.77
2023-02-03T23:02:59.085Z,13.45
2023-02-03T23:05:28.572Z,15.25
2023-02-03T23:07:58.067Z,17.05
2023-02-03T23:10:26.802Z,15.25
2023-02-03T23:12:53.711Z,11.57
2023-02-03T23:15:20.720Z,11.07
2023-02-03T23:17:47.632Z,8.95
2023-02-03T23:20:15.671Z,10.43
2023-02-03T23:22:43.111Z,11.18
2023-02-03T23:25:10.442Z,8.73
2023-02-03T23:27:37.464Z,5.90
2023-02-03T23:30:06.050Z,8.68
2023-02-03T23:32:33.949Z,8.20
2023-02-03T23:35:20.505Z,5.88
2023-02-03T23:37:47.652Z,7.50
2023-02-03T23:40:15.002Z,6.55
2023-02-03T23:42:42.150Z,7.82
2023-02-03T23:45:11.845Z,8.52
2023-02-03T23:47:43.576Z,6.15
2023-02-03T23:50:13.860Z,6.70
2023-02-03T23:52:40.801Z,6.60
2023-02-03T23:55:17.271Z,7.75
2023-02-03T23:57:44.906Z,5.40
